Time;durP1;ratioP1;P1;durP2;ratioP2;P2;SDS_P1;SDS_P2;PMS_P1;PMS_P2;Temp;Humidity;BMP_temperature;BMP_pressure;BME280_temperature;BME280_humidity;BME280_pressure;Samples;Min_cycle;Max_cycle;Signal;HPM_P1;HPM_P2
2021/12/30 00:06:53;;;;;;;;;;;11.90;99.90;;;;;;5151768;27;19919;-73
2021/12/30 00:09:20;;;;;;;;;;;12.00;99.90;;;;;;5152190;27;19912;-73
2021/12/30 00:11:45;;;;;;;;;;;12.00;99.90;;;;;;5152103;27;19930;-72
2021/12/30 00:14:11;;;;;;;;;;;12.00;99.90;;;;;;5133468;27;20374;-73
2021/12/30 00:16:37;;;;;;;;;;;12.00;99.90;;;;;;5151404;27;19955;-72
2021/12/30 00:19:03;;;;;;;;;;;12.20;99.90;;;;;;5151954;27;19914;-73
2021/12/30 00:21:28;;;;;;;;;;;12.10;99.90;;;;;;5132818;27;19914;-72
2021/12/30 00:23:54;;;;;;;;;;;;;;;;;;5151793;27;19971;-73
2021/12/30 00:26:20;;;;;;;;;;;12.10;99.90;;;;;;5151894;27;20263;-72
2021/12/30 00:28:45;;;;;;;;;;;12.10;99.90;;;;;;5151253;27;19907;-72
2021/12/30 00:31:11;;;;;;;;;;;12.10;99.90;;;;;;5151702;27;19941;-72
2021/12/30 00:33:37;;;;;;;;;;;12.20;99.90;;;;;;5150957;27;19916;-72
2021/12/30 00:36:03;;;;;;;;;;;12.20;99.90;;;;;;5151942;27;19907;-72
2021/12/30 00:38:29;;;;;;;;;;;12.10;99.90;;;;;;5150953;27;19916;-72
2021/12/30 00:40:54;;;;;;;;;;;12.30;99.90;;;;;;5151567;27;19916;-72
2021/12/30 00:43:20;;;;;;;;;;;12.20;99.90;;;;;;5151414;27;19994;-73
2021/12/30 00:45:46;;;;;;;;;;;12.30;99.90;;;;;;5150801;27;19994;-72
2021/12/30 00:48:11;;;;;;;;;;;12.30;99.90;;;;;;5151119;27;19915;-72
2021/12/30 00:50:39;;;;;;;;;;;12.30;99.90;;;;;;5150758;27;19907;-73
2021/12/30 00:53:05;;;;;;;;;;;12.20;99.90;;;;;;5151398;27;19911;-73
2021/12/30 00:55:30;;;;;;;;;;;12.00;99.90;;;;;;5150664;27;19911;-72
2021/12/30 00:57:56;;;;;;;;;;;12.00;99.90;;;;;;5151208;27;19907;-72
2021/12/30 01:00:22;;;;;;;;;;;12.10;99.90;;;;;;5151156;27;19914;-72
2021/12/30 01:02:47;;;;;;;;;;;12.00;99.90;;;;;;5150500;27;19954;-72
2021/12/30 01:05:13;;;;;;;;;;;12.00;99.90;;;;;;5150437;27;19977;-73
2021/12/30 01:07:39;;;;;;;;;;;12.00;99.90;;;;;;5150444;27;20252;-73
2021/12/30 01:10:06;;;;;;;;;;;12.10;99.90;;;;;;5151048;27;19911;-73
2021/12/30 01:12:32;;;;;;;;;;;12.10;99.90;;;;;;5150255;27;19922;-72
2021/12/30 01:14:58;;;;;;;;;;;12.30;99.90;;;;;;5149458;27;19908;-72
2021/12/30 01:17:39;;;;;;;;;;;;;;;;;;5136732;27;20386;-72
2021/12/30 01:20:05;;;;;;;;;;;12.20;99.90;;;;;;5118651;27;20308;-72
2021/12/30 01:22:33;;;;;;;;;;;12.40;99.90;;;;;;5136854;27;19915;-73
2021/12/30 01:24:58;;;;;;;;;;;12.40;99.90;;;;;;5136922;27;19916;-72
2021/12/30 01:27:24;;;;;;;;;;;;;;;;;;5118323;27;19919;-72
2021/12/30 01:29:50;;;;;;;;;;;12.50;99.90;;;;;;5136717;27;19907;-72
2021/12/30 01:32:15;;;;;;;;;;;12.40;99.90;;;;;;5136741;27;19907;-73
2021/12/30 01:34:41;;;;;;;;;;;12.40;99.90;;;;;;5117530;27;19927;-73
2021/12/30 01:37:06;;;;;;;;;;;12.50;99.90;;;;;;5136395;27;19908;-72
2021/12/30 01:39:34;;;;;;;;;;;12.50;99.90;;;;;;5135959;27;19958;-72
2021/12/30 01:41:59;;;;;;;;;;;12.40;99.90;;;;;;5136460;27;19907;-72
2021/12/30 01:44:25;;;;;;;;;;;;;;;;;;5136425;27;19922;-72
2021/12/30 01:46:51;;;;;;;;;;;12.50;99.90;;;;;;5136459;27;19912;-72
2021/12/30 01:49:17;;;;;;;;;;;12.60;99.90;;;;;;5136368;27;19914;-72
2021/12/30 01:51:43;;;;;;;;;;;12.70;99.90;;;;;;5135784;27;20371;-73
2021/12/30 01:54:09;;;;;;;;;;;12.60;99.90;;;;;;5136153;27;20443;-72
2021/12/30 01:56:34;;;;;;;;;;;12.70;99.90;;;;;;5135635;27;19911;-72
2021/12/30 01:59:00;;;;;;;;;;;12.60;99.90;;;;;;5135926;27;19907;-72
2021/12/30 02:01:26;;;;;;;;;;;12.60;99.90;;;;;;5136230;27;19915;-72
2021/12/30 02:03:51;;;;;;;;;;;12.60;99.90;;;;;;5135826;27;19923;-72
2021/12/30 02:06:17;;;;;;;;;;;12.50;99.90;;;;;;5136188;27;19908;-72
2021/12/30 02:08:43;;;;;;;;;;;12.50;99.90;;;;;;5135444;27;20002;-72
2021/12/30 02:11:10;;;;;;;;;;;12.50;99.90;;;;;;5136087;27;19908;-73
2021/12/30 02:13:35;;;;;;;;;;;12.50;99.90;;;;;;5134874;27;19908;-72
2021/12/30 02:16:02;;;;;;;;;;;12.50;99.90;;;;;;5135562;27;19908;-72
2021/12/30 02:18:27;;;;;;;;;;;;;;;;;;5135662;27;19914;-72
2021/12/30 02:20:55;;;;;;;;;;;12.30;99.90;;;;;;5135885;27;19908;-72
2021/12/30 02:23:22;;;;;;;;;;;12.30;99.90;;;;;;5117350;27;19908;-72
2021/12/30 02:25:49;;;;;;;;;;;12.40;99.90;;;;;;5135153;27;20154;-72
2021/12/30 02:28:14;;;;;;;;;;;;;;;;;;5134622;27;19934;-72
2021/12/30 02:30:40;;;;;;;;;;;12.20;99.90;;;;;;5134977;27;20335;-72
2021/12/30 02:33:06;;;;;;;;;;;12.20;99.90;;;;;;5135669;27;19916;-72
2021/12/30 02:35:32;;;;;;;;;;;12.20;99.90;;;;;;5135171;27;20370;-72
2021/12/30 02:37:58;;;;;;;;;;;12.20;99.90;;;;;;5135434;27;19964;-72
2021/12/30 02:40:27;;;;;;;;;;;12.20;99.90;;;;;;5135343;27;19911;-72
2021/12/30 02:42:53;;;;;;;;;;;12.30;99.90;;;;;;5116398;27;19908;-72
2021/12/30 02:45:19;;;;;;;;;;;12.30;99.90;;;;;;5135209;27;19923;-72
2021/12/30 02:47:44;;;;;;;;;;;12.20;99.90;;;;;;5134732;27;19907;-72
2021/12/30 02:50:10;;;;;;;;;;;12.20;99.90;;;;;;5134659;27;19915;-72
2021/12/30 02:52:36;;;;;;;;;;;12.30;99.90;;;;;;5134464;27;20370;-72
2021/12/30 02:55:02;;;;;;;;;;;12.30;99.90;;;;;;5135188;27;19911;-72
2021/12/30 02:57:28;;;;;;;;;;;12.30;99.90;;;;;;5134006;27;19995;-72
2021/12/30 02:59:53;;;;;;;;;;;12.30;99.90;;;;;;5134454;27;19911;-72
2021/12/30 03:02:19;;;;;;;;;;;12.20;99.90;;;;;;5134951;27;20385;-72
2021/12/30 03:04:44;;;;;;;;;;;12.20;99.90;;;;;;5134149;27;19924;-72
2021/12/30 03:07:10;;;;;;;;;;;12.30;99.90;;;;;;5134583;27;19915;-72
2021/12/30 03:09:35;;;;;;;;;;;12.30;99.90;;;;;;5134269;27;20243;-72
2021/12/30 03:12:01;;;;;;;;;;;12.30;99.90;;;;;;5134931;27;19907;-72
2021/12/30 03:14:28;;;;;;;;;;;12.40;99.90;;;;;;5135140;27;19914;-72
2021/12/30 03:16:54;;;;;;;;;;;;;;;;;;5134126;27;19934;-72
2021/12/30 03:19:20;;;;;;;;;;;12.50;99.90;;;;;;5134687;27;20362;-72
2021/12/30 03:21:45;;;;;;;;;;;12.40;99.90;;;;;;5134022;27;19914;-72
2021/12/30 03:24:11;;;;;;;;;;;12.40;99.90;;;;;;5134535;27;20274;-72
2021/12/30 03:26:36;;;;;;;;;;;12.20;99.90;;;;;;5133899;27;19962;-72
2021/12/30 03:29:03;;;;;;;;;;;12.40;99.90;;;;;;5134482;27;19911;-72
2021/12/30 03:31:28;;;;;;;;;;;12.50;99.90;;;;;;5134185;27;19994;-73
2021/12/30 03:33:54;;;;;;;;;;;12.40;99.90;;;;;;5133576;27;20329;-72
2021/12/30 03:36:20;;;;;;;;;;;12.40;99.90;;;;;;5134338;27;19961;-72
2021/12/30 03:38:48;;;;;;;;;;;12.30;99.90;;;;;;5133510;27;19960;-72
2021/12/30 03:41:16;;;;;;;;;;;12.30;99.90;;;;;;5134565;27;19908;-72
2021/12/30 03:43:41;;;;;;;;;;;12.40;99.90;;;;;;5133643;27;19914;-72
2021/12/30 03:46:07;;;;;;;;;;;12.40;99.90;;;;;;5134438;27;19907;-72
2021/12/30 03:48:34;;;;;;;;;;;;;;;;;;5134146;27;19907;-72
2021/12/30 03:51:06;;;;;;;;;;;12.40;99.90;;;;;;5134256;27;19908;-72
2021/12/30 03:53:37;;;;;;;;;;;12.50;99.90;;;;;;5134141;27;19918;-72
2021/12/30 03:56:04;;;;;;;;;;;12.40;99.90;;;;;;5115781;27;19907;-72
2021/12/30 03:58:29;;;;;;;;;;;12.40;99.90;;;;;;5134117;27;20007;-72
2021/12/30 04:00:55;;;;;;;;;;;12.40;99.90;;;;;;5133213;27;19942;-72
2021/12/30 04:03:20;;;;;;;;;;;12.50;99.90;;;;;;5133819;28;19914;-73
2021/12/30 04:05:46;;;;;;;;;;;12.50;99.90;;;;;;5133433;28;19916;-72
2021/12/30 04:08:12;;;;;;;;;;;12.50;99.90;;;;;;5134290;28;19952;-72
2021/12/30 04:10:37;;;;;;;;;;;12.70;99.90;;;;;;5133438;28;19907;-72
2021/12/30 04:13:04;;;;;;;;;;;12.70;99.90;;;;;;5133964;28;19960;-72
2021/12/30 04:15:29;;;;;;;;;;;12.80;99.90;;;;;;5133957;28;19907;-72
2021/12/30 04:17:55;;;;;;;;;;;12.80;99.90;;;;;;5133339;28;19912;-72
2021/12/30 04:20:20;;;;;;;;;;;12.90;99.90;;;;;;5115198;28;20283;-72
2021/12/30 04:22:46;;;;;;;;;;;13.00;99.90;;;;;;5133220;28;19907;-72
2021/12/30 04:25:12;;;;;;;;;;;13.00;99.90;;;;;;5133750;28;20282;-72
2021/12/30 04:27:38;;;;;;;;;;;13.00;99.90;;;;;;5133264;28;19997;-72
2021/12/30 04:30:05;;;;;;;;;;;13.00;99.90;;;;;;5133826;28;19947;-72
2021/12/30 04:32:30;;;;;;;;;;;13.10;99.90;;;;;;5133729;28;20381;-72
2021/12/30 04:34:55;;;;;;;;;;;13.10;99.90;;;;;;5133304;28;19919;-73
2021/12/30 04:37:21;;;;;;;;;;;13.20;99.90;;;;;;5133736;28;19907;-72
2021/12/30 04:39:46;;;;;;;;;;;13.20;99.90;;;;;;5114794;28;19946;-72
2021/12/30 04:42:12;;;;;;;;;;;13.10;99.90;;;;;;5133694;28;19912;-73
2021/12/30 04:44:37;;;;;;;;;;;13.30;99.90;;;;;;5132958;28;19916;-72
2021/12/30 04:47:03;;;;;;;;;;;13.30;99.90;;;;;;5133956;28;19911;-72
2021/12/30 04:49:29;;;;;;;;;;;13.20;99.90;;;;;;5133690;28;19907;-72
2021/12/30 04:51:54;;;;;;;;;;;;;;;;;;5135765;27;19918;-72
2021/12/30 04:54:20;;;;;;;;;;;13.40;99.90;;;;;;5119097;27;19915;-72
2021/12/30 04:56:46;;;;;;;;;;;13.50;99.90;;;;;;5136852;27;19946;-72
2021/12/30 04:59:11;;;;;;;;;;;13.40;99.90;;;;;;5137411;27;20367;-72
2021/12/30 05:01:38;;;;;;;;;;;;;;;;;;5137117;27;19914;-72
2021/12/30 05:04:04;;;;;;;;;;;;;;;;;;5136824;27;20030;-73
2021/12/30 05:06:31;;;;;;;;;;;13.50;99.90;;;;;;5137240;27;19946;-72
2021/12/30 05:08:57;;;;;;;;;;;13.60;99.90;;;;;;5136632;27;20400;-72
2021/12/30 05:11:22;;;;;;;;;;;13.60;99.90;;;;;;5137071;27;19911;-72
2021/12/30 05:13:48;;;;;;;;;;;13.60;99.90;;;;;;5136236;27;19916;-72
2021/12/30 05:16:15;;;;;;;;;;;13.60;99.90;;;;;;5137037;27;19912;-72
2021/12/30 05:18:41;;;;;;;;;;;13.60;99.90;;;;;;5136468;27;19907;-72
2021/12/30 05:21:06;;;;;;;;;;;13.70;99.90;;;;;;5118587;27;19914;-72
2021/12/30 05:23:32;;;;;;;;;;;13.70;99.90;;;;;;5136919;27;19932;-72
2021/12/30 05:25:58;;;;;;;;;;;13.50;99.90;;;;;;5117928;27;20275;-72
2021/12/30 05:28:23;;;;;;;;;;;13.60;99.90;;;;;;5136884;27;19907;-72
2021/12/30 05:30:49;;;;;;;;;;;13.60;99.90;;;;;;5117733;27;19991;-72
2021/12/30 05:33:15;;;;;;;;;;;13.70;99.90;;;;;;5118252;27;19908;-73
2021/12/30 05:35:40;;;;;;;;;;;13.70;99.90;;;;;;5117832;27;19907;-72
2021/12/30 05:38:06;;;;;;;;;;;13.70;99.90;;;;;;5136413;27;19954;-72
2021/12/30 05:40:32;;;;;;;;;;;13.50;99.90;;;;;;5136635;27;19915;-72
2021/12/30 05:42:58;;;;;;;;;;;13.70;99.90;;;;;;5117602;27;19908;-72
2021/12/30 05:45:26;;;;;;;;;;;13.70;99.90;;;;;;5136428;27;19923;-72
2021/12/30 05:47:52;;;;;;;;;;;13.80;99.90;;;;;;5135887;27;19907;-72
2021/12/30 05:50:22;;;;;;;;;;;13.70;99.90;;;;;;5136535;27;19960;-73
2021/12/30 05:52:48;;;;;;;;;;;13.70;99.90;;;;;;5135825;27;19907;-72
2021/12/30 05:55:14;;;;;;;;;;;13.80;99.90;;;;;;5136343;27;20332;-72
2021/12/30 05:57:40;;;;;;;;;;;13.70;99.90;;;;;;5136009;27;19908;-72
2021/12/30 06:00:06;;;;;;;;;;;13.80;99.90;;;;;;5136032;27;19907;-72
2021/12/30 06:02:32;;;;;;;;;;;13.50;99.90;;;;;;5117774;27;19907;-72
2021/12/30 06:04:57;;;;;;;;;;;13.80;99.90;;;;;;5134871;27;19938;-72
2021/12/30 06:07:23;;;;;;;;;;;13.80;99.90;;;;;;5135845;27;19907;-72
2021/12/30 06:09:49;;;;;;;;;;;13.90;99.90;;;;;;5135468;27;19907;-72
2021/12/30 06:12:15;;;;;;;;;;;13.90;99.90;;;;;;5135972;27;19908;-72
2021/12/30 06:14:41;;;;;;;;;;;13.90;99.90;;;;;;5117684;27;20363;-73
2021/12/30 06:17:07;;;;;;;;;;;14.00;99.90;;;;;;5135854;27;19907;-72
2021/12/30 06:19:32;;;;;;;;;;;13.90;99.90;;;;;;5135862;27;19914;-72
2021/12/30 06:21:58;;;;;;;;;;;13.90;99.90;;;;;;5135162;27;19908;-72
2021/12/30 06:24:23;;;;;;;;;;;14.00;99.90;;;;;;5135688;27;20006;-72
2021/12/30 06:26:49;;;;;;;;;;;13.90;99.90;;;;;;5135064;27;20002;-72
2021/12/30 06:29:15;;;;;;;;;;;;;;;;;;5135692;27;19911;-72
2021/12/30 06:31:41;;;;;;;;;;;13.70;99.90;;;;;;5135640;27;20326;-72
2021/12/30 06:34:06;;;;;;;;;;;13.80;99.90;;;;;;5134814;27;19919;-73
2021/12/30 06:36:32;;;;;;;;;;;13.80;99.90;;;;;;5135633;27;19907;-72
2021/12/30 06:38:57;;;;;;;;;;;13.90;99.90;;;;;;5134861;27;19907;-72
2021/12/30 06:41:23;;;;;;;;;;;13.80;99.90;;;;;;5134832;27;20415;-72
2021/12/30 06:43:48;;;;;;;;;;;13.80;99.90;;;;;;5132081;27;19959;-72
2021/12/30 06:46:15;;;;;;;;;;;13.90;99.90;;;;;;5116842;27;20286;-72
2021/12/30 06:48:45;;;;;;;;;;;13.90;99.90;;;;;;5135052;27;19908;-72
2021/12/30 06:51:12;;;;;;;;;;;13.80;99.90;;;;;;5135335;27;19908;-72
2021/12/30 06:53:37;;;;;;;;;;;13.90;99.90;;;;;;5135047;27;20400;-72
2021/12/30 06:56:03;;;;;;;;;;;13.80;99.90;;;;;;5133904;27;19908;-72
2021/12/30 06:58:28;;;;;;;;;;;13.80;99.90;;;;;;5134417;27;19994;-72
2021/12/30 07:00:54;;;;;;;;;;;13.90;99.90;;;;;;5134193;27;19918;-72
2021/12/30 07:03:20;;;;;;;;;;;;;;;;;;5134331;27;19953;-71
2021/12/30 07:05:46;;;;;;;;;;;;;;;;;;5134216;27;19998;-72
2021/12/30 07:08:12;;;;;;;;;;;;;;;;;;5134121;27;19908;-73
2021/12/30 07:10:37;;;;;;;;;;;13.80;99.90;;;;;;5134527;27;19963;-72
2021/12/30 07:13:03;;;;;;;;;;;13.70;99.90;;;;;;5115025;27;19907;-74
2021/12/30 07:15:28;;;;;;;;;;;13.80;99.90;;;;;;5134359;27;19907;-79
2021/12/30 07:17:54;;;;;;;;;;;13.80;99.90;;;;;;5133571;27;19942;-73
2021/12/30 07:20:19;;;;;;;;;;;13.90;99.90;;;;;;5134094;27;19915;-76
2021/12/30 07:22:45;;;;;;;;;;;;;;;;;;5134194;27;19915;-76
2021/12/30 07:25:16;;;;;;;;;;;;;;;;;;5115057;27;20407;-75
2021/12/30 07:27:43;;;;;;;;;;;13.80;99.90;;;;;;5115847;27;19966;-74
2021/12/30 07:30:08;;;;;;;;;;;14.00;99.90;;;;;;5114488;27;20456;-74
2021/12/30 07:32:34;;;;;;;;;;;14.00;99.90;;;;;;5133084;27;19911;-72
2021/12/30 07:34:59;;;;;;;;;;;14.00;99.90;;;;;;5133088;27;19915;-73
2021/12/30 07:37:25;;;;;;;;;;;14.10;99.90;;;;;;5115661;27;19963;-79
2021/12/30 07:39:51;;;;;;;;;;;;;;;;;;5114904;27;19935;-76
2021/12/30 07:42:17;;;;;;;;;;;;;;;;;;5134134;27;20381;-74
2021/12/30 07:44:42;;;;;;;;;;;14.20;99.90;;;;;;5133624;27;19968;-74
2021/12/30 07:47:08;;;;;;;;;;;14.30;99.90;;;;;;5133087;27;19990;-74
2021/12/30 07:49:36;;;;;;;;;;;14.20;99.90;;;;;;5133882;27;19935;-74
2021/12/30 07:52:05;;;;;;;;;;;14.10;99.90;;;;;;5133024;27;19908;-74
2021/12/30 07:54:31;;;;;;;;;;;14.10;99.90;;;;;;5133767;27;19915;-75
2021/12/30 07:56:57;;;;;;;;;;;14.30;99.90;;;;;;5132978;27;19968;-75
2021/12/30 07:59:23;;;;;;;;;;;14.30;99.90;;;;;;5133757;27;19998;-75
2021/12/30 08:01:49;;;;;;;;;;;;;;;;;;5115124;28;19907;-77
2021/12/30 08:04:15;;;;;;;;;;;;;;;;;;5132909;28;19928;-77
2021/12/30 08:06:40;;;;;;;;;;;14.10;99.90;;;;;;5133617;28;20266;-76
2021/12/30 08:09:06;;;;;;;;;;;14.10;99.90;;;;;;5132582;28;19914;-76
2021/12/30 08:11:32;;;;;;;;;;;14.00;99.90;;;;;;5133410;28;19907;-76
2021/12/30 08:13:59;;;;;;;;;;;14.10;99.90;;;;;;5114448;28;19939;-77
2021/12/30 08:16:25;;;;;;;;;;;;;;;;;;5115332;28;19949;-76
2021/12/30 08:18:51;;;;;;;;;;;;;;;;;;5133275;28;20319;-77
2021/12/30 08:21:17;;;;;;;;;;;;;;;;;;5133521;28;19908;-76
2021/12/30 08:23:42;;;;;;;;;;;14.00;99.90;;;;;;5133560;28;20279;-76
2021/12/30 08:26:08;;;;;;;;;;;13.90;99.90;;;;;;5134877;27;20341;-76
2021/12/30 08:28:33;;;;;;;;;;;13.90;99.90;;;;;;5138092;27;19907;-76
2021/12/30 08:30:59;;;;;;;;;;;14.00;99.90;;;;;;5137377;27;19914;-76
2021/12/30 08:33:25;;;;;;;;;;;;;;;;;;5137774;27;19911;-75
2021/12/30 08:35:50;;;;;;;;;;;14.00;99.90;;;;;;5137224;27;20274;-76
2021/12/30 08:38:17;;;;;;;;;;;14.10;99.90;;;;;;5137904;27;19907;-75
2021/12/30 08:40:45;;;;;;;;;;;14.10;99.90;;;;;;5137850;27;19908;-75
2021/12/30 08:43:13;;;;;;;;;;;14.20;99.90;;;;;;5137123;27;19911;-75
2021/12/30 08:45:38;;;;;;;;;;;14.30;99.90;;;;;;5119087;27;19915;-75
2021/12/30 08:48:04;;;;;;;;;;;14.30;99.90;;;;;;5136729;27;19975;-76
2021/12/30 08:50:30;;;;;;;;;;;14.30;99.90;;;;;;5137591;27;20397;-75
2021/12/30 08:52:55;;;;;;;;;;;14.30;99.90;;;;;;5136674;27;19907;-76
2021/12/30 08:55:21;;;;;;;;;;;14.40;99.90;;;;;;5137466;27;20373;-75
2021/12/30 08:57:48;;;;;;;;;;;14.40;99.90;;;;;;5137265;27;19911;-75
2021/12/30 09:00:16;;;;;;;;;;;14.40;99.90;;;;;;5118379;27;19974;-75
2021/12/30 09:02:41;;;;;;;;;;;14.40;99.90;;;;;;5119044;27;20274;-75
2021/12/30 09:05:07;;;;;;;;;;;14.40;99.90;;;;;;5117952;27;19923;-75
2021/12/30 09:07:33;;;;;;;;;;;14.50;99.90;;;;;;5137266;27;19915;-75
2021/12/30 09:09:58;;;;;;;;;;;14.40;99.90;;;;;;5118223;27;19943;-76
2021/12/30 09:12:24;;;;;;;;;;;14.40;99.90;;;;;;5118968;27;19912;-75
2021/12/30 09:14:50;;;;;;;;;;;14.40;99.90;;;;;;5137129;27;20233;-75
2021/12/30 09:17:15;;;;;;;;;;;14.40;99.90;;;;;;5136505;27;19914;-76
2021/12/30 09:19:41;;;;;;;;;;;14.40;99.90;;;;;;5137159;27;19932;-76
2021/12/30 09:22:07;;;;;;;;;;;14.40;99.90;;;;;;5136137;27;20354;-75
2021/12/30 09:24:33;;;;;;;;;;;14.40;99.90;;;;;;5136655;27;20378;-75
2021/12/30 09:26:59;;;;;;;;;;;14.40;99.90;;;;;;5136362;27;19915;-75
2021/12/30 09:29:26;;;;;;;;;;;;;;;;;;5136837;27;20106;-75
2021/12/30 09:31:51;;;;;;;;;;;14.40;99.90;;;;;;5136827;27;19907;-75
2021/12/30 09:34:17;;;;;;;;;;;14.50;99.90;;;;;;5136130;27;19922;-75
2021/12/30 09:36:43;;;;;;;;;;;14.60;99.90;;;;;;5117884;27;19972;-75
2021/12/30 09:39:11;;;;;;;;;;;14.60;99.90;;;;;;5117659;27;19907;-75
2021/12/30 09:41:37;;;;;;;;;;;14.60;99.90;;;;;;5136668;27;19907;-75
2021/12/30 09:44:04;;;;;;;;;;;14.50;99.90;;;;;;5135992;27;19915;-75
2021/12/30 09:46:30;;;;;;;;;;;14.50;99.90;;;;;;5136219;27;19947;-75
2021/12/30 09:48:55;;;;;;;;;;;14.60;99.90;;;;;;5135989;27;20351;-76
2021/12/30 09:51:21;;;;;;;;;;;14.50;99.90;;;;;;5134404;27;19920;-75
2021/12/30 09:53:47;;;;;;;;;;;;;;;;;;5132861;27;19912;-75
2021/12/30 09:56:15;;;;;;;;;;;14.50;99.90;;;;;;5134383;27;19912;-75
2021/12/30 09:58:40;;;;;;;;;;;14.50;99.90;;;;;;5136078;27;20002;-75
2021/12/30 10:01:06;;;;;;;;;;;;;;;;;;5113309;27;19947;-75
2021/12/30 10:03:32;;;;;;;;;;;14.50;99.90;;;;;;5097111;28;19916;-75
2021/12/30 10:06:11;;;;;;;;;;;14.60;99.90;;;;;;5114349;28;19912;-75
2021/12/30 10:08:42;;;;;;;;;;;14.50;99.90;;;;;;5115610;28;19903;-75
2021/12/30 10:11:12;;;;;;;;;;;14.60;99.90;;;;;;5114959;28;19911;-75
2021/12/30 10:13:41;;;;;;;;;;;14.60;99.90;;;;;;5115642;28;20258;-75
2021/12/30 10:16:10;;;;;;;;;;;14.60;99.90;;;;;;5114881;28;19903;-75
2021/12/30 10:18:43;;;;;;;;;;;14.60;99.90;;;;;;5115641;28;20293;-75
2021/12/30 10:21:17;;;;;;;;;;;14.70;99.90;;;;;;5114853;28;19979;-75
2021/12/30 10:23:48;;;;;;;;;;;14.70;99.90;;;;;;5115255;28;20260;-75
2021/12/30 10:26:13;;;;;;;;;;;14.80;99.90;;;;;;5114767;28;20002;-75
2021/12/30 10:28:40;;;;;;;;;;;14.80;99.90;;;;;;5096931;28;19953;-75
2021/12/30 10:31:12;;;;;;;;;;;14.80;99.90;;;;;;5114569;28;19927;-75
2021/12/30 10:33:45;;;;;;;;;;;14.80;99.90;;;;;;5096399;28;19916;-75
2021/12/30 10:36:38;;;;;;;;;;;14.90;99.90;;;;;;5114891;28;19990;-75
2021/12/30 10:39:20;;;;;;;;;;;14.80;99.90;;;;;;5110112;28;19904;-75
2021/12/30 10:41:46;;;;;;;;;;;14.90;99.90;;;;;;5096667;28;19907;-75
2021/12/30 10:44:12;;;;;;;;;;;14.90;99.90;;;;;;5114275;28;19911;-75
2021/12/30 10:46:38;;;;;;;;;;;14.90;99.90;;;;;;5114877;28;20022;-75
2021/12/30 10:49:09;;;;;;;;;;;14.80;99.90;;;;;;5113010;28;19904;-75
2021/12/30 10:51:35;;;;;;;;;;;14.90;99.90;;;;;;5096572;28;20295;-75
2021/12/30 10:54:09;;;;;;;;;;;14.90;99.90;;;;;;5114146;28;19912;-75
2021/12/30 10:56:35;;;;;;;;;;;;;;;;;;5114976;28;19933;-75
2021/12/30 10:59:07;;;;;;;;;;;14.80;99.90;;;;;;5113995;28;19908;-76
2021/12/30 11:01:37;;;;;;;;;;;14.80;99.90;;;;;;5114564;28;19903;-75
2021/12/30 11:04:02;;;;;;;;;;;14.80;99.90;;;;;;5095052;28;19927;-75
2021/12/30 11:06:28;;;;;;;;;;;14.90;99.90;;;;;;5114252;28;19908;-75
2021/12/30 11:09:03;;;;;;;;;;;14.80;99.90;;;;;;5114778;28;20220;-75
2021/12/30 11:11:29;;;;;;;;;;;14.70;99.90;;;;;;5114374;28;19908;-75
2021/12/30 11:14:00;;;;;;;;;;;14.70;99.90;;;;;;5096202;28;19982;-75
2021/12/30 11:16:26;;;;;;;;;;;14.80;99.90;;;;;;5114512;28;19911;-74
2021/12/30 11:18:51;;;;;;;;;;;14.80;99.90;;;;;;5114341;28;19903;-75
2021/12/30 11:21:36;;;;;;;;;;;14.80;99.90;;;;;;5113522;28;20227;-75
2021/12/30 11:24:02;;;;;;;;;;;14.90;99.90;;;;;;5113561;28;19950;-75
2021/12/30 11:26:28;;;;;;;;;;;15.00;99.90;;;;;;5114164;28;19939;-75
2021/12/30 11:28:53;;;;;;;;;;;15.00;99.90;;;;;;5113832;28;19904;-75
2021/12/30 11:31:19;;;;;;;;;;;15.00;99.90;;;;;;5113463;28;19996;-75
2021/12/30 11:33:45;;;;;;;;;;;15.10;99.90;;;;;;5114040;28;20320;-75
2021/12/30 11:36:11;;;;;;;;;;;15.10;99.90;;;;;;5113738;28;19904;-75
2021/12/30 11:38:36;;;;;;;;;;;15.10;99.90;;;;;;5095460;28;19926;-75
2021/12/30 11:41:02;;;;;;;;;;;15.10;99.90;;;;;;5113313;28;19904;-75
2021/12/30 11:43:40;;;;;;;;;;;15.10;99.90;;;;;;5113606;28;19989;-75
2021/12/30 11:46:06;;;;;;;;;;;15.10;99.90;;;;;;5113235;28;19914;-75
2021/12/30 11:48:38;;;;;;;;;;;15.20;99.90;;;;;;5113670;28;19937;-76
2021/12/30 11:51:08;;;;;;;;;;;15.10;99.90;;;;;;5113318;28;19910;-76
2021/12/30 11:53:34;;;;;;;;;;;15.10;99.90;;;;;;5113883;28;20331;-75
2021/12/30 11:56:00;;;;;;;;;;;15.00;99.90;;;;;;5113621;28;19911;-75
2021/12/30 11:58:29;;;;;;;;;;;15.10;99.90;;;;;;5113077;28;19904;-75
2021/12/30 12:00:55;;;;;;;;;;;15.00;99.90;;;;;;5113494;28;19947;-75
2021/12/30 12:03:21;;;;;;;;;;;;;;;;;;5112700;28;19994;-75
2021/12/30 12:05:47;;;;;;;;;;;15.00;99.90;;;;;;5113265;28;20115;-75
2021/12/30 12:08:13;;;;;;;;;;;15.00;99.90;;;;;;5112949;28;20366;-75
2021/12/30 12:10:40;;;;;;;;;;;15.10;99.90;;;;;;5113546;28;19903;-75
2021/12/30 12:13:24;;;;;;;;;;;15.10;99.90;;;;;;5112881;28;20404;-76
2021/12/30 12:15:49;;;;;;;;;;;15.10;99.90;;;;;;5113515;28;19904;-75
2021/12/30 12:18:15;;;;;;;;;;;;;;;;;;5094634;28;19915;-75
2021/12/30 12:20:49;;;;;;;;;;;15.10;99.90;;;;;;5113455;28;20236;-76
2021/12/30 12:23:15;;;;;;;;;;;;;;;;;;5112859;28;19908;-75
2021/12/30 12:25:41;;;;;;;;;;;15.10;99.90;;;;;;5113414;28;20242;-76
2021/12/30 12:28:18;;;;;;;;;;;15.10;99.90;;;;;;5112826;28;19934;-76
2021/12/30 12:30:50;;;;;;;;;;;15.00;99.90;;;;;;5113493;28;19903;-75
2021/12/30 12:33:22;;;;;;;;;;;15.10;99.90;;;;;;5113498;28;19908;-75
2021/12/30 12:35:48;;;;;;;;;;;15.00;99.90;;;;;;5113325;28;19991;-76
2021/12/30 12:38:13;;;;;;;;;;;15.10;99.90;;;;;;5112701;28;19954;-76
2021/12/30 12:40:41;;;;;;;;;;;15.10;99.90;;;;;;5120253;28;19998;-75
2021/12/30 12:43:07;;;;;;;;;;;;;;;;;;5112840;28;20286;-77
2021/12/30 12:45:44;;;;;;;;;;;15.00;99.90;;;;;;5114211;28;19912;-75
2021/12/30 12:48:15;;;;;;;;;;;15.10;99.90;;;;;;5112437;28;20007;-75
2021/12/30 12:50:42;;;;;;;;;;;15.00;99.90;;;;;;5113074;28;19908;-76
2021/12/30 12:53:29;;;;;;;;;;;15.00;99.90;;;;;;5093919;28;20426;-76
2021/12/30 12:55:56;;;;;;;;;;;14.90;99.90;;;;;;5093989;28;19914;-75
2021/12/30 12:58:26;;;;;;;;;;;15.00;99.90;;;;;;5112081;28;19911;-76
2021/12/30 13:00:55;;;;;;;;;;;14.90;99.90;;;;;;5112929;28;19924;-75
2021/12/30 13:03:21;;;;;;;;;;;;;;;;;;5112147;28;19908;-75
2021/12/30 13:05:53;;;;;;;;;;;14.90;99.90;;;;;;5112907;28;19912;-75
2021/12/30 13:08:20;;;;;;;;;;;14.90;99.90;;;;;;5111977;28;19919;-76
2021/12/30 13:10:45;;;;;;;;;;;14.90;99.90;;;;;;5112483;28;20010;-76
2021/12/30 13:13:11;;;;;;;;;;;;;;;;;;5114810;28;19991;-76
2021/12/30 13:15:40;;;;;;;;;;;14.80;99.90;;;;;;5097778;28;19908;-76
2021/12/30 13:18:15;;;;;;;;;;;14.80;99.90;;;;;;5116229;28;19937;-75
2021/12/30 13:20:41;;;;;;;;;;;14.80;99.90;;;;;;5116205;28;19908;-76
2021/12/30 13:23:07;;;;;;;;;;;;;;;;;;5097354;28;19914;-75
2021/12/30 13:25:32;;;;;;;;;;;14.80;99.90;;;;;;5115260;28;20010;-75
2021/12/30 13:28:03;;;;;;;;;;;14.90;99.90;;;;;;5115694;28;20267;-76
2021/12/30 13:30:28;;;;;;;;;;;14.90;99.90;;;;;;5096810;28;20480;-75
2021/12/30 13:32:54;;;;;;;;;;;14.90;99.90;;;;;;5115709;28;19994;-75
2021/12/30 13:35:27;;;;;;;;;;;15.00;99.90;;;;;;5096125;28;19923;-75
2021/12/30 13:37:53;;;;;;;;;;;15.00;99.90;;;;;;5123620;27;20362;-75
2021/12/30 13:40:40;;;;;;;;;;;14.90;99.90;;;;;;5122973;27;19914;-76
2021/12/30 13:43:11;;;;;;;;;;;14.90;99.90;;;;;;5111958;28;20316;-75
2021/12/30 13:45:40;;;;;;;;;;;14.90;99.90;;;;;;5111701;28;19915;-76
2021/12/30 13:48:06;;;;;;;;;;;;;;;;;;5093730;28;19915;-76
2021/12/30 13:50:32;;;;;;;;;;;;;;;;;;5093000;28;20450;-76
2021/12/30 13:53:00;;;;;;;;;;;;;;;;;;5093681;28;19943;-76
2021/12/30 13:55:26;;;;;;;;;;;;;;;;;;5110604;28;20359;-77
2021/12/30 13:57:52;;;;;;;;;;;;;;;;;;5117104;27;20363;-75
2021/12/30 14:00:18;;;;;;;;;;;;;;;;;;5127900;27;19914;-75
2021/12/30 14:02:44;;;;;;;;;;;;;;;;;;5113978;27;19912;-77
2021/12/30 14:05:13;;;;;;;;;;;;;;;;;;5132124;27;19934;-75
2021/12/30 14:07:43;;;;;;;;;;;14.90;99.90;;;;;;5131855;27;19908;-77
2021/12/30 14:10:09;;;;;;;;;;;;;;;;;;5132854;27;20370;-76
2021/12/30 14:12:35;;;;;;;;;;;;;;;;;;5102226;27;19930;-67
2021/12/30 14:15:14;;;;;;;;;;;15.00;99.90;;;;;;5113459;27;19974;-74
2021/12/30 14:17:42;;;;;;;;;;;14.90;99.90;;;;;;5119184;27;19911;-75
2021/12/30 14:20:08;;;;;;;;;;;14.80;99.90;;;;;;5115930;27;19951;-80
2021/12/30 14:22:34;;;;;;;;;;;;;;;;;;5117598;27;19947;-78
2021/12/30 14:24:59;;;;;;;;;;;14.80;99.90;;;;;;5122904;27;20347;-73
2021/12/30 14:27:26;;;;;;;;;;;14.90;99.90;;;;;;5112438;27;20368;-72
2021/12/30 14:29:51;;;;;;;;;;;14.80;99.90;;;;;;5098400;28;19912;-71
2021/12/30 14:32:18;;;;;;;;;;;;;;;;;;5116227;27;20320;-71
2021/12/30 14:34:44;;;;;;;;;;;14.80;99.90;;;;;;5113364;27;19963;-71
2021/12/30 14:37:19;;;;;;;;;;;;;;;;;;5133710;27;20355;-74
2021/12/30 14:39:44;;;;;;;;;;;14.80;99.90;;;;;;5108151;27;19916;-70